createdAt,value
2023-02-11T00:01:19.990Z,19.57
2023-02-11T00:03:46.785Z,20.43
2023-02-11T00:06:13.493Z,20.37
2023-02-11T00:08:40.599Z,20.23
2023-02-11T00:11:07.930Z,22.20
2023-02-11T00:13:34.955Z,23.77
2023-02-11T00:16:07.130Z,23.77
2023-02-11T00:18:34.268Z,22.23
2023-02-11T00:21:01.329Z,20.60
2023-02-11T00:23:28.368Z,22.10
2023-02-11T00:25:54.953Z,21.50
2023-02-11T00:28:21.589Z,20.53
2023-02-11T00:30:55.403Z,20.37
2023-02-11T00:33:22.035Z,20.97
2023-02-11T00:35:49.417Z,20.53
2023-02-11T00:38:16.607Z,20.70
2023-02-11T00:40:43.957Z,19.53
2023-02-11T00:43:10.608Z,21.00
2023-02-11T00:45:37.198Z,22.33
2023-02-11T00:48:03.847Z,21.70
2023-02-11T00:50:30.426Z,21.67
2023-02-11T00:52:57.466Z,21.90
2023-02-11T00:55:24.117Z,21.03
2023-02-11T00:57:50.894Z,22.07
2023-02-11T01:00:17.692Z,20.73
2023-02-11T01:02:45.184Z,20.70
2023-02-11T01:05:11.846Z,22.00
2023-02-11T01:07:38.991Z,20.97
2023-02-11T01:10:06.177Z,20.13
2023-02-11T01:12:35.996Z,21.37
2023-02-11T01:15:04.842Z,21.17
2023-02-11T01:17:33.025Z,19.80
2023-02-11T01:20:00.050Z,20.53
2023-02-11T01:22:26.731Z,20.40
2023-02-11T01:24:53.907Z,21.40
2023-02-11T01:27:20.519Z,21.00
2023-02-11T01:29:47.209Z,22.80
2023-02-11T01:32:13.923Z,20.70
2023-02-11T01:34:40.618Z,20.20
2023-02-11T01:37:07.235Z,21.50
2023-02-11T01:39:34.519Z,20.87
2023-02-11T01:42:01.696Z,20.57
2023-02-11T01:44:36.856Z,22.30
2023-02-11T01:47:06.243Z,21.73
2023-02-11T01:49:36.332Z,20.47
2023-02-11T01:52:03.388Z,22.13
2023-02-11T01:54:53.754Z,20.90
2023-02-11T01:57:25.136Z,20.93
2023-02-11T02:00:26.277Z,22.13
2023-02-11T02:03:19.971Z,20.33
2023-02-11T02:05:55.484Z,21.50
2023-02-11T02:08:38.900Z,21.47
2023-02-11T02:11:05.608Z,21.50
2023-02-11T02:13:34.192Z,19.17
2023-02-11T02:16:03.446Z,23.17
2023-02-11T02:18:37.883Z,21.23
2023-02-11T02:21:16.377Z,22.60
2023-02-11T02:24:04.153Z,20.90
2023-02-11T02:26:44.868Z,18.60
2023-02-11T02:29:34.452Z,20.67
2023-02-11T02:32:40.917Z,20.80
2023-02-11T02:35:23.533Z,19.17
2023-02-11T02:38:13.616Z,21.20
2023-02-11T02:40:48.913Z,21.23
2023-02-11T02:43:17.073Z,22.83
2023-02-11T02:45:44.158Z,20.70
2023-02-11T02:48:27.085Z,21.80
2023-02-11T02:51:09.756Z,21.07
2023-02-11T02:54:24.652Z,22.27
2023-02-11T02:57:10.221Z,20.73
2023-02-11T02:59:54.881Z,19.70
2023-02-11T03:02:38.787Z,23.30
2023-02-11T03:05:21.486Z,20.10
2023-02-11T03:08:09.755Z,21.80
2023-02-11T03:10:43.738Z,23.03
2023-02-11T03:13:11.440Z,20.10
2023-02-11T03:15:42.085Z,21.47
2023-02-11T03:18:11.804Z,20.47
2023-02-11T03:20:41.411Z,19.67
2023-02-11T03:23:28.891Z,20.33
2023-02-11T03:26:01.552Z,21.97
2023-02-11T03:28:44.177Z,21.93
2023-02-11T03:31:17.011Z,20.70
2023-02-11T03:34:08.565Z,19.23
2023-02-11T03:36:35.545Z,20.43
2023-02-11T03:39:04.566Z,21.33
2023-02-11T03:41:33.200Z,21.23
2023-02-11T03:44:00.572Z,21.17
2023-02-11T03:46:37.331Z,21.23
2023-02-11T03:49:09.590Z,20.37
2023-02-11T03:51:37.426Z,21.37
2023-02-11T03:54:10.038Z,20.97
2023-02-11T03:56:45.858Z,19.57
2023-02-11T03:59:12.907Z,18.37
2023-02-11T04:01:39.925Z,19.23
2023-02-11T04:04:06.944Z,21.00
2023-02-11T04:06:33.544Z,20.37
2023-02-11T04:09:00.203Z,19.10
2023-02-11T04:11:26.842Z,19.40
2023-02-11T04:13:53.463Z,19.43
2023-02-11T04:16:20.399Z,19.40
2023-02-11T04:18:47.039Z,18.20
2023-02-11T04:21:13.643Z,21.07
2023-02-11T04:23:40.249Z,20.73
2023-02-11T04:26:07.103Z,20.47
2023-02-11T04:28:34.842Z,21.20
2023-02-11T04:31:01.700Z,23.23
2023-02-11T04:33:28.432Z,20.37
2023-02-11T04:35:55.006Z,20.70
2023-02-11T04:38:24.020Z,20.77
2023-02-11T04:40:51.306Z,23.07
2023-02-11T04:43:17.988Z,20.13
2023-02-11T04:45:45.036Z,19.80
2023-02-11T04:48:11.680Z,21.40
2023-02-11T04:50:38.260Z,20.07
2023-02-11T04:53:04.881Z,22.83
2023-02-11T04:55:31.944Z,19.00
2023-02-11T04:57:58.542Z,20.97
2023-02-11T05:00:25.587Z,18.97
2023-02-11T05:02:52.193Z,21.13
2023-02-11T05:05:18.814Z,20.20
2023-02-11T05:07:45.879Z,20.67
2023-02-11T05:10:12.472Z,20.77
2023-02-11T05:12:39.482Z,20.97
2023-02-11T05:15:06.453Z,22.03
2023-02-11T05:17:33.172Z,20.97
2023-02-11T05:20:00.207Z,21.20
2023-02-11T05:22:26.879Z,21.20
2023-02-11T05:24:53.905Z,18.97
2023-02-11T05:27:20.977Z,21.17
2023-02-11T05:29:47.997Z,20.50
2023-02-11T05:32:14.570Z,21.63
2023-02-11T05:34:41.177Z,21.20
2023-02-11T05:37:07.982Z,21.27
2023-02-11T05:39:35.069Z,21.73
2023-02-11T05:42:01.742Z,21.60
2023-02-11T05:44:28.773Z,24.27
2023-02-11T05:46:55.800Z,23.30
2023-02-11T05:49:22.445Z,22.70
2023-02-11T05:51:49.549Z,23.53
2023-02-11T05:54:16.791Z,22.43
2023-02-11T05:56:44.937Z,23.00
2023-02-11T05:59:14.430Z,24.20
2023-02-11T06:01:41.131Z,22.63
2023-02-11T06:04:08.266Z,23.63
2023-02-11T06:06:34.886Z,24.47
2023-02-11T06:09:01.931Z,22.37
2023-02-11T06:11:28.952Z,25.50
2023-02-11T06:13:55.852Z,24.47
2023-02-11T06:16:23.071Z,22.93
2023-02-11T06:18:49.728Z,22.60
2023-02-11T06:21:16.289Z,23.80
2023-02-11T06:23:43.600Z,22.13
2023-02-11T06:26:17.153Z,24.03
2023-02-11T06:28:44.345Z,22.57
2023-02-11T06:31:11.865Z,23.80
2023-02-11T06:33:39.238Z,22.03
2023-02-11T06:36:15.613Z,22.03
2023-02-11T06:38:42.585Z,22.40
2023-02-11T06:41:11.183Z,22.13
2023-02-11T06:43:38.259Z,22.97
2023-02-11T06:46:05.412Z,22.73
2023-02-11T06:48:32.480Z,23.13
2023-02-11T06:51:04.923Z,23.57
2023-02-11T06:53:41.575Z,22.90
2023-02-11T06:56:11.722Z,24.47
2023-02-11T06:58:38.550Z,23.37
2023-02-11T07:01:07.146Z,23.50
2023-02-11T07:03:36.341Z,22.67
2023-02-11T07:06:05.467Z,24.40
2023-02-11T07:08:36.188Z,24.53
2023-02-11T07:11:16.330Z,23.57
2023-02-11T07:13:43.623Z,24.03
2023-02-11T07:16:13.311Z,23.97
2023-02-11T07:18:40.385Z,24.37
2023-02-11T07:21:08.803Z,22.53
2023-02-11T07:23:35.811Z,23.80
2023-02-11T07:26:11.434Z,23.20
2023-02-11T07:28:38.858Z,24.10
2023-02-11T07:31:13.279Z,24.17
2023-02-11T07:33:40.467Z,25.67
2023-02-11T07:36:09.633Z,24.67
2023-02-11T07:38:37.390Z,24.00
2023-02-11T07:41:06.788Z,23.60
2023-02-11T07:43:34.192Z,24.97
2023-02-11T07:46:07.688Z,25.33
2023-02-11T07:48:34.906Z,24.93
2023-02-11T07:51:12.976Z,23.47
2023-02-11T07:53:40.001Z,24.47
2023-02-11T07:56:07.931Z,24.63
2023-02-11T07:58:34.674Z,25.53
2023-02-11T08:01:07.024Z,26.30
2023-02-11T08:03:35.056Z,23.87
2023-02-11T08:06:09.962Z,25.30
2023-02-11T08:08:36.946Z,23.50
2023-02-11T08:11:15.306Z,26.43
2023-02-11T08:13:42.361Z,24.67
2023-02-11T08:16:09.639Z,26.23
2023-02-11T08:18:37.018Z,27.70
2023-02-11T08:21:08.257Z,27.07
2023-02-11T08:23:39.048Z,24.33
2023-02-11T08:26:09.638Z,26.93
2023-02-11T08:28:37.838Z,26.47
2023-02-11T08:31:19.742Z,27.23
2023-02-11T08:33:46.799Z,26.73
2023-02-11T08:36:16.842Z,25.70
2023-02-11T08:38:44.489Z,28.33
2023-02-11T08:41:11.884Z,25.63
2023-02-11T08:43:41.625Z,25.67
2023-02-11T08:46:11.741Z,24.97
2023-02-11T08:48:38.372Z,25.23
2023-02-11T08:51:09.684Z,26.80
2023-02-11T08:53:37.059Z,24.40
2023-02-11T08:56:03.991Z,25.63
2023-02-11T08:58:30.740Z,27.90
2023-02-11T09:00:57.923Z,26.70
2023-02-11T09:03:24.798Z,26.13
2023-02-11T09:05:53.227Z,25.77
2023-02-11T09:08:20.911Z,25.00
2023-02-11T09:10:47.722Z,26.83
2023-02-11T09:13:14.527Z,26.93
2023-02-11T09:15:41.582Z,29.37
2023-02-11T09:18:08.179Z,27.40
2023-02-11T09:20:34.782Z,28.70
2023-02-11T09:23:01.697Z,29.90
2023-02-11T09:25:28.549Z,27.40
2023-02-11T09:27:55.724Z,28.33
2023-02-11T09:30:22.688Z,27.73
2023-02-11T09:32:49.605Z,28.17
2023-02-11T09:35:16.755Z,27.13
2023-02-11T09:37:43.501Z,29.73
2023-02-11T09:40:11.172Z,30.80
2023-02-11T09:42:43.393Z,28.67
2023-02-11T09:45:18.854Z,28.87
2023-02-11T09:47:49.655Z,29.03
2023-02-11T09:50:22.888Z,28.90
2023-02-11T09:53:10.882Z,27.33
2023-02-11T09:55:42.784Z,28.63
2023-02-11T09:58:21.290Z,28.87
2023-02-11T10:00:59.891Z,29.43
2023-02-11T10:03:56.648Z,27.40
2023-02-11T10:06:29.197Z,31.00
2023-02-11T10:09:23.537Z,28.80
2023-02-11T10:12:15.294Z,30.20
2023-02-11T10:15:06.902Z,30.30
2023-02-11T10:17:52.561Z,31.93
2023-02-11T10:20:30.658Z,30.20
2023-02-11T10:23:08.342Z,30.70
2023-02-11T10:25:38.626Z,30.40
2023-02-11T10:28:20.602Z,31.43
2023-02-11T10:31:21.923Z,30.07
2023-02-11T10:33:58.960Z,29.20
2023-02-11T10:36:36.429Z,31.20
2023-02-11T10:39:13.471Z,32.50
2023-02-11T10:41:44.279Z,29.63
2023-02-11T10:44:22.073Z,32.93
2023-02-11T10:46:49.652Z,31.23
2023-02-11T10:49:36.823Z,29.77
2023-02-11T10:52:32.801Z,30.47
2023-02-11T10:55:02.813Z,30.47
2023-02-11T10:57:38.287Z,31.83
2023-02-11T11:00:22.803Z,34.13
2023-02-11T11:02:56.598Z,32.53
2023-02-11T11:05:48.184Z,33.90
2023-02-11T11:08:16.288Z,34.07
2023-02-11T11:10:44.607Z,30.77
2023-02-11T11:13:23.159Z,32.27
2023-02-11T11:16:12.394Z,32.50
2023-02-11T11:18:47.993Z,30.10
2023-02-11T11:21:44.460Z,29.73
2023-02-11T11:24:19.768Z,31.47
2023-02-11T11:26:48.787Z,32.23
2023-02-11T11:29:35.703Z,31.63
2023-02-11T11:32:06.358Z,33.47
2023-02-11T11:34:37.093Z,32.50
2023-02-11T11:37:24.533Z,32.60
2023-02-11T11:39:56.906Z,33.80
2023-02-11T11:42:32.999Z,30.50
2023-02-11T11:45:02.387Z,31.83
2023-02-11T11:48:06.754Z,32.60
2023-02-11T11:50:55.867Z,34.03
2023-02-11T11:53:43.967Z,32.77
2023-02-11T11:56:29.144Z,33.33
2023-02-11T11:58:56.747Z,32.67
2023-02-11T12:01:41.965Z,33.37
2023-02-11T12:04:30.478Z,33.30
2023-02-11T12:07:25.807Z,34.83
2023-02-11T12:10:07.641Z,33.47
2023-02-11T12:12:40.311Z,34.50
2023-02-11T12:15:29.036Z,32.47
2023-02-11T12:18:09.857Z,35.07
2023-02-11T12:21:15.733Z,36.23
2023-02-11T12:23:55.832Z,34.47
2023-02-11T12:26:28.649Z,31.23
2023-02-11T12:29:28.714Z,35.23
2023-02-11T12:32:10.186Z,34.03
2023-02-11T12:34:37.244Z,35.27
2023-02-11T12:37:49.725Z,36.50
2023-02-11T12:40:16.780Z,32.30
2023-02-11T12:43:20.786Z,34.90
2023-02-11T12:46:42.832Z,32.30
2023-02-11T12:49:46.590Z,33.13
2023-02-11T12:52:31.288Z,33.07
2023-02-11T12:55:07.797Z,34.60
2023-02-11T12:57:37.839Z,32.47
2023-02-11T13:00:07.138Z,33.53
2023-02-11T13:02:41.331Z,34.83
2023-02-11T13:05:26.637Z,33.90
2023-02-11T13:07:58.582Z,35.27
2023-02-11T13:10:37.639Z,32.90
2023-02-11T13:13:22.790Z,33.90
2023-02-11T13:15:49.912Z,32.63
2023-02-11T13:18:40.052Z,33.57
2023-02-11T13:21:40.051Z,33.70
2023-02-11T13:24:07.070Z,35.97
2023-02-11T13:26:45.914Z,35.17
2023-02-11T13:29:38.809Z,42.43
2023-02-11T13:32:13.517Z,33.33
2023-02-11T13:34:40.525Z,32.17
2023-02-11T13:37:21.776Z,34.80
2023-02-11T13:40:02.721Z,33.00
2023-02-11T13:42:31.205Z,35.40
2023-02-11T13:44:58.295Z,30.77
2023-02-11T13:47:33.655Z,35.83
2023-02-11T13:50:02.353Z,33.50
2023-02-11T13:52:38.742Z,31.53
2023-02-11T13:55:21.463Z,33.97
2023-02-11T13:58:08.023Z,28.77
2023-02-11T14:00:34.694Z,30.80
2023-02-11T14:03:28.941Z,30.43
2023-02-11T14:06:31.643Z,30.77
2023-02-11T14:09:09.802Z,29.63
2023-02-11T14:11:49.912Z,28.93
2023-02-11T14:14:27.627Z,31.77
2023-02-11T14:17:02.871Z,31.23
2023-02-11T14:19:37.843Z,31.03
2023-02-11T14:22:26.617Z,30.80
2023-02-11T14:25:02.574Z,28.93
2023-02-11T14:27:44.149Z,27.63
2023-02-11T14:30:34.952Z,29.30
2023-02-11T14:33:38.265Z,31.47
2023-02-11T14:36:31.213Z,28.47
2023-02-11T14:39:22.459Z,28.57
2023-02-11T14:41:51.080Z,28.67
2023-02-11T14:44:25.613Z,27.93
2023-02-11T14:46:53.702Z,26.70
2023-02-11T14:49:32.584Z,28.17
2023-02-11T14:52:25.347Z,26.70
2023-02-11T14:54:56.940Z,26.70
2023-02-11T14:57:23.526Z,26.63
2023-02-11T15:00:05.960Z,26.20
2023-02-11T15:02:35.905Z,25.03
2023-02-11T15:05:28.962Z,24.30
2023-02-11T15:07:59.459Z,25.83
2023-02-11T15:10:35.282Z,25.60
2023-02-11T15:13:03.622Z,27.47
2023-02-11T15:15:31.483Z,23.83
2023-02-11T15:18:01.468Z,26.90
2023-02-11T15:20:31.759Z,25.43
2023-02-11T15:23:10.910Z,25.73
2023-02-11T15:25:43.902Z,23.87
2023-02-11T15:28:23.717Z,27.43
2023-02-11T15:31:14.098Z,23.37
2023-02-11T15:33:41.194Z,21.67
2023-02-11T15:36:11.369Z,23.90
2023-02-11T15:38:38.072Z,23.10
2023-02-11T15:41:07.436Z,23.27
2023-02-11T15:44:00.401Z,22.13
2023-02-11T15:46:37.596Z,20.87
2023-02-11T15:49:04.781Z,21.53
2023-02-11T15:51:35.375Z,21.53
2023-02-11T15:54:07.645Z,22.50
2023-02-11T15:56:44.083Z,21.43
2023-02-11T15:59:25.702Z,23.57
2023-02-11T16:01:54.184Z,25.10
2023-02-11T16:04:27.083Z,23.00
2023-02-11T16:06:55.333Z,22.73
2023-02-11T16:09:31.304Z,23.83
2023-02-11T16:12:00.711Z,25.13
2023-02-11T16:14:27.268Z,23.80
2023-02-11T16:16:57.586Z,25.73
2023-02-11T16:19:26.876Z,23.57
2023-02-11T16:21:56.461Z,27.10
2023-02-11T16:24:28.643Z,26.37
2023-02-11T16:26:58.940Z,26.43
2023-02-11T16:29:35.215Z,25.77
2023-02-11T16:32:10.299Z,25.23
2023-02-11T16:34:37.457Z,26.07
2023-02-11T16:37:05.522Z,29.23
2023-02-11T16:39:32.495Z,28.10
2023-02-11T16:41:59.352Z,24.73
2023-02-11T16:44:26.128Z,25.17
2023-02-11T16:46:53.242Z,27.97
2023-02-11T16:49:26.510Z,26.10
2023-02-11T16:52:00.945Z,28.47
2023-02-11T16:54:29.319Z,28.80
2023-02-11T16:56:56.844Z,28.03
2023-02-11T16:59:24.259Z,26.23
2023-02-11T17:01:53.588Z,27.90
2023-02-11T17:04:25.303Z,34.40
2023-02-11T17:06:52.189Z,34.10
2023-02-11T17:09:24.589Z,31.47
2023-02-11T17:11:51.834Z,26.07
2023-02-11T17:14:20.019Z,27.57
2023-02-11T17:16:47.851Z,28.10
2023-02-11T17:19:16.843Z,27.80
2023-02-11T17:21:44.767Z,29.30
2023-02-11T17:24:12.214Z,28.87
2023-02-11T17:26:39.007Z,28.33
2023-02-11T17:29:10.223Z,28.37
2023-02-11T17:31:37.213Z,29.63
2023-02-11T17:34:03.896Z,30.77
2023-02-11T17:36:31.286Z,29.03
2023-02-11T17:38:58.728Z,30.03
2023-02-11T17:41:25.711Z,30.20
2023-02-11T17:43:52.444Z,29.60
2023-02-11T17:46:19.330Z,29.03
2023-02-11T17:48:45.932Z,30.80
2023-02-11T17:51:30.500Z,29.70
2023-02-11T17:53:59.267Z,30.17
2023-02-11T17:56:25.860Z,30.90
2023-02-11T17:58:53.114Z,31.30
2023-02-11T18:01:20.375Z,31.87
2023-02-11T18:03:47.033Z,29.47
2023-02-11T18:06:13.671Z,32.00
2023-02-11T18:08:41.803Z,32.33
2023-02-11T18:11:13.430Z,31.40
2023-02-11T18:13:40.037Z,31.03
2023-02-11T18:16:15.383Z,29.27
2023-02-11T18:18:43.160Z,40.47
2023-02-11T18:21:13.811Z,34.13
2023-02-11T18:23:40.425Z,33.53
2023-02-11T18:26:08.246Z,33.53
2023-02-11T18:28:35.159Z,55.00
2023-02-11T18:31:02.243Z,52.17
2023-02-11T18:33:29.808Z,63.60
2023-02-11T18:35:56.823Z,48.10
2023-02-11T18:38:24.493Z,50.63
2023-02-11T18:40:52.272Z,45.17
2023-02-11T18:43:20.403Z,33.37
2023-02-11T18:45:48.945Z,31.33
2023-02-11T18:48:16.814Z,47.03
2023-02-11T18:50:45.418Z,51.07
2023-02-11T18:53:14.009Z,36.40
2023-02-11T18:55:42.395Z,39.83
2023-02-11T18:58:09.622Z,35.40
2023-02-11T19:00:38.608Z,39.83
2023-02-11T19:03:05.321Z,31.03
2023-02-11T19:05:33.384Z,34.80
2023-02-11T19:08:00.888Z,35.13
2023-02-11T19:10:28.119Z,47.27
2023-02-11T19:12:58.981Z,33.03
2023-02-11T19:15:26.341Z,37.53
2023-02-11T19:17:53.024Z,33.33
2023-02-11T19:20:19.698Z,33.90
2023-02-11T19:22:46.368Z,33.57
2023-02-11T19:25:13.622Z,33.10
2023-02-11T19:27:43.226Z,28.90
2023-02-11T19:30:10.829Z,28.20
2023-02-11T19:32:37.445Z,29.97
2023-02-11T19:35:04.249Z,31.23
2023-02-11T19:37:30.868Z,30.53
2023-02-11T19:39:57.519Z,29.57
2023-02-11T19:42:27.562Z,30.33
2023-02-11T19:44:54.369Z,28.43
2023-02-11T19:47:27.463Z,29.90
2023-02-11T19:49:54.700Z,30.27
2023-02-11T19:52:21.333Z,30.90
2023-02-11T19:54:48.040Z,28.97
2023-02-11T19:57:14.624Z,30.57
2023-02-11T19:59:41.329Z,30.53
2023-02-11T20:02:10.186Z,30.53
2023-02-11T20:04:36.848Z,31.63
2023-02-11T20:07:03.499Z,29.57
2023-02-11T20:09:31.679Z,31.67
2023-02-11T20:11:58.918Z,27.77
2023-02-11T20:14:27.816Z,29.63
2023-02-11T20:16:54.711Z,29.47
2023-02-11T20:19:22.101Z,30.87
2023-02-11T20:21:51.886Z,30.10
2023-02-11T20:24:19.405Z,30.33
2023-02-11T20:26:48.154Z,31.40
2023-02-11T20:29:16.277Z,30.50
2023-02-11T20:31:43.305Z,30.07
2023-02-11T20:34:11.379Z,29.57
2023-02-11T20:36:39.135Z,31.33
2023-02-11T20:39:06.942Z,30.23
2023-02-11T20:41:39.061Z,27.70
2023-02-11T20:44:08.483Z,29.10
2023-02-11T20:46:37.018Z,30.63
2023-02-11T20:49:03.763Z,30.50
2023-02-11T20:51:33.269Z,28.70
2023-02-11T20:54:00.894Z,28.43
2023-02-11T20:56:30.363Z,30.43
2023-02-11T20:58:58.440Z,29.03
2023-02-11T21:01:27.701Z,28.97
2023-02-11T21:03:58.453Z,28.67
2023-02-11T21:06:27.146Z,28.83
2023-02-11T21:08:54.200Z,28.20
2023-02-11T21:11:21.136Z,28.63
2023-02-11T21:13:48.645Z,27.40
2023-02-11T21:16:17.966Z,27.33
2023-02-11T21:18:44.575Z,28.63
2023-02-11T21:21:11.623Z,29.00
2023-02-11T21:23:39.712Z,30.07
2023-02-11T21:26:07.854Z,29.57
2023-02-11T21:28:35.199Z,28.93
2023-02-11T21:31:02.922Z,27.07
2023-02-11T21:33:33.425Z,28.17
2023-02-11T21:36:02.004Z,28.30
2023-02-11T21:38:29.476Z,27.77
2023-02-11T21:41:01.845Z,27.47
2023-02-11T21:43:28.586Z,27.83
2023-02-11T21:45:55.561Z,28.43
2023-02-11T21:48:23.736Z,29.17
2023-02-11T21:50:50.321Z,27.87
2023-02-11T21:53:17.077Z,30.17
2023-02-11T21:55:43.754Z,29.20
2023-02-11T21:58:12.605Z,29.47
2023-02-11T22:00:39.649Z,28.00
2023-02-11T22:03:06.443Z,29.23
2023-02-11T22:05:33.112Z,28.97
2023-02-11T22:07:59.924Z,29.80
2023-02-11T22:10:26.589Z,26.33
2023-02-11T22:12:53.189Z,27.43
2023-02-11T22:15:19.786Z,28.33
2023-02-11T22:17:46.408Z,27.57
2023-02-11T22:20:16.466Z,29.83
2023-02-11T22:22:43.165Z,28.23
2023-02-11T22:25:10.014Z,28.57
2023-02-11T22:27:36.606Z,29.70
2023-02-11T22:30:04.628Z,29.13
2023-02-11T22:32:31.238Z,29.23
2023-02-11T22:34:57.888Z,27.17
2023-02-11T22:37:24.460Z,29.37
2023-02-11T22:39:51.053Z,30.43
2023-02-11T22:42:17.658Z,29.97
2023-02-11T22:44:44.473Z,31.27
2023-02-11T22:47:11.058Z,29.57
2023-02-11T22:49:39.447Z,30.63
2023-02-11T22:52:06.031Z,28.93
2023-02-11T22:54:32.645Z,29.53
2023-02-11T22:56:59.265Z,30.27
2023-02-11T22:59:25.849Z,27.97
2023-02-11T23:01:52.483Z,29.57
2023-02-11T23:04:20.789Z,30.13
2023-02-11T23:06:47.711Z,30.07
2023-02-11T23:09:14.368Z,33.00
2023-02-11T23:11:41.444Z,32.37
2023-02-11T23:14:10.027Z,30.60
2023-02-11T23:16:36.676Z,31.53
2023-02-11T23:19:06.815Z,29.30
2023-02-11T23:21:35.400Z,30.90
2023-02-11T23:24:05.429Z,29.47
2023-02-11T23:26:32.089Z,28.73
2023-02-11T23:28:59.789Z,30.33
2023-02-11T23:31:33.941Z,30.10
2023-02-11T23:34:01.350Z,28.03
2023-02-11T23:36:28.496Z,30.47
2023-02-11T23:38:55.254Z,29.97
2023-02-11T23:41:22.351Z,32.27
2023-02-11T23:43:54.347Z,31.50
2023-02-11T23:46:24.754Z,29.60
2023-02-11T23:48:52.420Z,27.50
2023-02-11T23:51:19.614Z,29.77
2023-02-11T23:53:46.608Z,31.17
2023-02-11T23:56:15.983Z,30.10
2023-02-11T23:58:44.606Z,30.47
